sensor_id;sensor_type;location;lat;lon;timestamp;pressure;altitude;pressure_sealevel;temperature;humidity
23446;BME280;11895;48.738;9.320;2023-06-22T00:01:22;98749.22;;;24.59;100.00
23446;BME280;11895;48.738;9.320;2023-06-22T00:03:50;98746.28;;;24.60;100.00
23446;BME280;11895;48.738;9.320;2023-06-22T00:06:17;98739.91;;;24.60;100.00
23446;BME280;11895;48.738;9.320;2023-06-22T00:08:45;98744.69;;;24.50;100.00
23446;BME280;11895;48.738;9.320;2023-06-22T00:11:13;98738.47;;;24.48;100.00
23446;BME280;11895;48.738;9.320;2023-06-22T00:13:40;98738.63;;;24.46;100.00
23446;BME280;11895;48.738;9.320;2023-06-22T00:16:08;98738.31;;;24.31;100.00
23446;BME280;11895;48.738;9.320;2023-06-22T00:18:36;98730.16;;;24.22;100.00
23446;BME280;11895;48.738;9.320;2023-06-22T00:21:03;98728.66;;;24.27;100.00
23446;BME280;11895;48.738;9.320;2023-06-22T00:23:31;98736.94;;;24.27;100.00
23446;BME280;11895;48.738;9.320;2023-06-22T00:26:03;98741.81;;;24.16;100.00
23446;BME280;11895;48.738;9.320;2023-06-22T00:28:30;98745.81;;;24.21;100.00
23446;BME280;11895;48.738;9.320;2023-06-22T00:30:57;98745.97;;;24.20;100.00
23446;BME280;11895;48.738;9.320;2023-06-22T00:33:25;98747.13;;;24.17;100.00
23446;BME280;11895;48.738;9.320;2023-06-22T00:35:52;98745.88;;;24.29;100.00
23446;BME280;11895;48.738;9.320;2023-06-22T00:38:20;98751.66;;;24.18;100.00
23446;BME280;11895;48.738;9.320;2023-06-22T00:40:48;98742.28;;;24.11;100.00
23446;BME280;11895;48.738;9.320;2023-06-22T00:43:16;98744.38;;;24.17;100.00
23446;BME280;11895;48.738;9.320;2023-06-22T00:45:43;98733.72;;;24.14;100.00
23446;BME280;11895;48.738;9.320;2023-06-22T00:48:12;98727.75;;;24.01;100.00
23446;BME280;11895;48.738;9.320;2023-06-22T00:50:41;98722.63;;;24.06;100.00
23446;BME280;11895;48.738;9.320;2023-06-22T00:53:09;98723.53;;;23.89;100.00
23446;BME280;11895;48.738;9.320;2023-06-22T00:55:43;98720.53;;;24.00;100.00
23446;BME280;11895;48.738;9.320;2023-06-22T00:58:13;98731.84;;;23.97;100.00
23446;BME280;11895;48.738;9.320;2023-06-22T01:00:42;98732.69;;;23.97;100.00
23446;BME280;11895;48.738;9.320;2023-06-22T01:03:09;98736.66;;;23.95;100.00
23446;BME280;11895;48.738;9.320;2023-06-22T01:05:39;98752.44;;;23.93;100.00
23446;BME280;11895;48.738;9.320;2023-06-22T01:08:27;98753.16;;;23.95;100.00
23446;BME280;11895;48.738;9.320;2023-06-22T01:11:08;98748.44;;;23.87;100.00
23446;BME280;11895;48.738;9.320;2023-06-22T01:16:33;98784.44;;;23.76;100.00
23446;BME280;11895;48.738;9.320;2023-06-22T01:22:00;98785.94;;;23.60;100.00
23446;BME280;11895;48.738;9.320;2023-06-22T01:30:46;98758.81;;;23.20;100.00
23446;BME280;11895;48.738;9.320;2023-06-22T01:33:17;98756.41;;;23.17;100.00
23446;BME280;11895;48.738;9.320;2023-06-22T01:35:44;98764.19;;;23.22;100.00
23446;BME280;11895;48.738;9.320;2023-06-22T01:38:12;98776.84;;;23.32;100.00
23446;BME280;11895;48.738;9.320;2023-06-22T01:40:40;98761.47;;;23.40;100.00
23446;BME280;11895;48.738;9.320;2023-06-22T01:43:08;98744.03;;;23.49;100.00
23446;BME280;11895;48.738;9.320;2023-06-22T01:45:36;98758.63;;;23.31;100.00
23446;BME280;11895;48.738;9.320;2023-06-22T01:48:08;98750.06;;;23.34;100.00
23446;BME280;11895;48.738;9.320;2023-06-22T01:50:35;98755.97;;;23.40;100.00
23446;BME280;11895;48.738;9.320;2023-06-22T01:53:03;98747.03;;;23.38;100.00
23446;BME280;11895;48.738;9.320;2023-06-22T01:55:32;98745.28;;;23.37;100.00
23446;BME280;11895;48.738;9.320;2023-06-22T01:57:59;98752.53;;;23.38;100.00
23446;BME280;11895;48.738;9.320;2023-06-22T02:00:31;98760.13;;;23.44;100.00
23446;BME280;11895;48.738;9.320;2023-06-22T02:03:19;98774.50;;;23.38;100.00
23446;BME280;11895;48.738;9.320;2023-06-22T02:06:20;98770.44;;;23.42;100.00
23446;BME280;11895;48.738;9.320;2023-06-22T02:08:58;98757.16;;;23.37;100.00
23446;BME280;11895;48.738;9.320;2023-06-22T02:11:28;98763.09;;;23.05;100.00
23446;BME280;11895;48.738;9.320;2023-06-22T02:13:58;98761.50;;;23.12;100.00
23446;BME280;11895;48.738;9.320;2023-06-22T02:16:26;98785.69;;;22.99;100.00
23446;BME280;11895;48.738;9.320;2023-06-22T02:18:56;98776.75;;;22.97;100.00
23446;BME280;11895;48.738;9.320;2023-06-22T02:21:33;98777.31;;;22.91;100.00
23446;BME280;11895;48.738;9.320;2023-06-22T02:24:01;98783.66;;;23.01;100.00
23446;BME280;11895;48.738;9.320;2023-06-22T02:26:31;98779.34;;;22.98;100.00
23446;BME280;11895;48.738;9.320;2023-06-22T02:29:01;98776.84;;;23.05;100.00
23446;BME280;11895;48.738;9.320;2023-06-22T02:31:28;98772.06;;;23.07;100.00
23446;BME280;11895;48.738;9.320;2023-06-22T02:34:00;98762.47;;;23.11;100.00
23446;BME280;11895;48.738;9.320;2023-06-22T02:36:28;98771.75;;;23.10;100.00
23446;BME280;11895;48.738;9.320;2023-06-22T02:39:00;98765.56;;;23.08;100.00
23446;BME280;11895;48.738;9.320;2023-06-22T02:41:30;98764.25;;;23.12;100.00
23446;BME280;11895;48.738;9.320;2023-06-22T02:43:57;98757.00;;;23.11;100.00
23446;BME280;11895;48.738;9.320;2023-06-22T02:46:25;98758.75;;;23.12;100.00
23446;BME280;11895;48.738;9.320;2023-06-22T02:48:52;98755.19;;;23.02;100.00
23446;BME280;11895;48.738;9.320;2023-06-22T02:51:20;98752.72;;;22.99;100.00
23446;BME280;11895;48.738;9.320;2023-06-22T02:53:47;98754.78;;;22.97;100.00
23446;BME280;11895;48.738;9.320;2023-06-22T02:56:15;98738.88;;;22.91;100.00
23446;BME280;11895;48.738;9.320;2023-06-22T02:58:44;98738.81;;;23.00;100.00
23446;BME280;11895;48.738;9.320;2023-06-22T03:01:12;98737.16;;;22.90;100.00
23446;BME280;11895;48.738;9.320;2023-06-22T03:03:43;98726.72;;;22.93;100.00
23446;BME280;11895;48.738;9.320;2023-06-22T03:06:11;98730.81;;;22.79;100.00
23446;BME280;11895;48.738;9.320;2023-06-22T03:08:41;98732.81;;;22.87;100.00
23446;BME280;11895;48.738;9.320;2023-06-22T03:11:09;98727.19;;;22.79;100.00
23446;BME280;11895;48.738;9.320;2023-06-22T03:13:37;98731.50;;;22.81;100.00
23446;BME280;11895;48.738;9.320;2023-06-22T03:16:05;98723.69;;;22.87;100.00
23446;BME280;11895;48.738;9.320;2023-06-22T03:18:33;98719.47;;;22.55;100.00
23446;BME280;11895;48.738;9.320;2023-06-22T03:21:00;98715.72;;;22.56;100.00
23446;BME280;11895;48.738;9.320;2023-06-22T03:23:31;98725.56;;;22.49;100.00
23446;BME280;11895;48.738;9.320;2023-06-22T03:25:58;98723.94;;;22.56;100.00
23446;BME280;11895;48.738;9.320;2023-06-22T03:28:25;98721.34;;;22.64;100.00
23446;BME280;11895;48.738;9.320;2023-06-22T03:30:53;98722.75;;;22.68;100.00
23446;BME280;11895;48.738;9.320;2023-06-22T03:33:20;98721.59;;;22.71;100.00
23446;BME280;11895;48.738;9.320;2023-06-22T03:35:47;98730.22;;;22.76;100.00
23446;BME280;11895;48.738;9.320;2023-06-22T03:38:14;98727.44;;;22.58;100.00
23446;BME280;11895;48.738;9.320;2023-06-22T03:40:41;98732.31;;;22.64;100.00
23446;BME280;11895;48.738;9.320;2023-06-22T03:43:09;98729.16;;;22.59;100.00
23446;BME280;11895;48.738;9.320;2023-06-22T03:45:36;98729.16;;;22.59;100.00
23446;BME280;11895;48.738;9.320;2023-06-22T03:48:07;98730.59;;;22.63;100.00
23446;BME280;11895;48.738;9.320;2023-06-22T03:50:35;98729.16;;;22.59;100.00
23446;BME280;11895;48.738;9.320;2023-06-22T03:53:02;98721.34;;;22.64;100.00
23446;BME280;11895;48.738;9.320;2023-06-22T03:55:29;98724.78;;;22.66;100.00
23446;BME280;11895;48.738;9.320;2023-06-22T03:57:57;98726.22;;;22.70;100.00
23446;BME280;11895;48.738;9.320;2023-06-22T04:00:24;98728.22;;;22.78;100.00
23446;BME280;11895;48.738;9.320;2023-06-22T04:02:51;98731.69;;;22.70;100.00
23446;BME280;11895;48.738;9.320;2023-06-22T04:05:19;98722.50;;;22.52;100.00
23446;BME280;11895;48.738;9.320;2023-06-22T04:07:46;98724.25;;;22.43;100.00
23446;BME280;11895;48.738;9.320;2023-06-22T04:10:13;98723.34;;;22.62;100.00
23446;BME280;11895;48.738;9.320;2023-06-22T04:12:44;98722.44;;;22.71;100.00
23446;BME280;11895;48.738;9.320;2023-06-22T04:15:11;98715.81;;;22.74;100.00
23446;BME280;11895;48.738;9.320;2023-06-22T04:17:39;98716.38;;;22.77;100.00
23446;BME280;11895;48.738;9.320;2023-06-22T04:20:07;98719.81;;;22.89;100.00
23446;BME280;11895;48.738;9.320;2023-06-22T04:22:34;98709.22;;;22.94;100.00
23446;BME280;11895;48.738;9.320;2023-06-22T04:25:02;98709.09;;;22.86;100.00
23446;BME280;11895;48.738;9.320;2023-06-22T04:27:29;98704.59;;;22.95;100.00
23446;BME280;11895;48.738;9.320;2023-06-22T04:29:57;98705.34;;;22.87;100.00
23446;BME280;11895;48.738;9.320;2023-06-22T04:32:27;98692.69;;;23.04;100.00
23446;BME280;11895;48.738;9.320;2023-06-22T04:34:54;98691.66;;;23.05;100.00
23446;BME280;11895;48.738;9.320;2023-06-22T04:37:21;98692.22;;;23.08;100.00
23446;BME280;11895;48.738;9.320;2023-06-22T04:39:50;98687.91;;;23.06;100.00
23446;BME280;11895;48.738;9.320;2023-06-22T04:42:17;98696.47;;;23.21;100.00
23446;BME280;11895;48.738;9.320;2023-06-22T04:44:44;98695.63;;;23.20;100.00
23446;BME280;11895;48.738;9.320;2023-06-22T04:47:11;98689.13;;;23.21;100.00
23446;BME280;11895;48.738;9.320;2023-06-22T04:49:39;98678.94;;;23.31;100.00
23446;BME280;11895;48.738;9.320;2023-06-22T04:52:11;98662.59;;;23.48;100.00
23446;BME280;11895;48.738;9.320;2023-06-22T04:54:40;98669.59;;;23.60;100.00
23446;BME280;11895;48.738;9.320;2023-06-22T04:57:14;98670.16;;;23.64;100.00
23446;BME280;11895;48.738;9.320;2023-06-22T04:59:42;98667.53;;;23.62;100.00
23446;BME280;11895;48.738;9.320;2023-06-22T05:02:10;98660.09;;;23.72;100.00
23446;BME280;11895;48.738;9.320;2023-06-22T05:04:37;98668.66;;;23.87;100.00
23446;BME280;11895;48.738;9.320;2023-06-22T05:07:08;98669.91;;;23.93;100.00
23446;BME280;11895;48.738;9.320;2023-06-22T05:09:36;98663.53;;;23.92;100.00
23446;BME280;11895;48.738;9.320;2023-06-22T05:12:03;98665.94;;;24.13;100.00
23446;BME280;11895;48.738;9.320;2023-06-22T05:14:35;98661.81;;;24.17;100.00
23446;BME280;11895;48.738;9.320;2023-06-22T05:17:02;98656.38;;;24.25;100.00
23446;BME280;11895;48.738;9.320;2023-06-22T05:19:31;98660.75;;;24.10;100.00
23446;BME280;11895;48.738;9.320;2023-06-22T05:22:01;98650.09;;;24.33;100.00
23446;BME280;11895;48.738;9.320;2023-06-22T05:24:29;98645.44;;;24.33;100.00
23446;BME280;11895;48.738;9.320;2023-06-22T05:26:56;98644.56;;;24.33;100.00
23446;BME280;11895;48.738;9.320;2023-06-22T05:29:23;98645.19;;;24.45;100.00
23446;BME280;11895;48.738;9.320;2023-06-22T05:31:51;98644.41;;;24.60;100.00
23446;BME280;11895;48.738;9.320;2023-06-22T05:34:18;98653.25;;;24.72;100.00
23446;BME280;11895;48.738;9.320;2023-06-22T05:36:45;98641.06;;;24.83;100.00
23446;BME280;11895;48.738;9.320;2023-06-22T05:39:14;98637.50;;;24.91;100.00
23446;BME280;11895;48.738;9.320;2023-06-22T05:41:42;98636.53;;;25.08;100.00
23446;BME280;11895;48.738;9.320;2023-06-22T05:44:12;98631.75;;;25.26;100.00
23446;BME280;11895;48.738;9.320;2023-06-22T05:46:43;98635.56;;;25.42;100.00
23446;BME280;11895;48.738;9.320;2023-06-22T05:49:13;98634.53;;;25.51;100.00
23446;BME280;11895;48.738;9.320;2023-06-22T05:51:41;98646.28;;;25.69;100.00
23446;BME280;11895;48.738;9.320;2023-06-22T05:54:10;98646.47;;;25.68;100.00
23446;BME280;11895;48.738;9.320;2023-06-22T05:56:37;98642.31;;;25.72;100.00
23446;BME280;11895;48.738;9.320;2023-06-22T05:59:05;98638.41;;;25.82;100.00
23446;BME280;11895;48.738;9.320;2023-06-22T06:01:32;98644.94;;;25.89;100.00
23446;BME280;11895;48.738;9.320;2023-06-22T06:04:03;98634.59;;;26.00;100.00
23446;BME280;11895;48.738;9.320;2023-06-22T06:06:31;98638.34;;;26.15;100.00
23446;BME280;11895;48.738;9.320;2023-06-22T06:09:00;98628.34;;;26.22;100.00
23446;BME280;11895;48.738;9.320;2023-06-22T06:11:28;98626.59;;;26.37;100.00
23446;BME280;11895;48.738;9.320;2023-06-22T06:13:55;98624.03;;;26.28;100.00
23446;BME280;11895;48.738;9.320;2023-06-22T06:16:23;98628.69;;;26.35;100.00
23446;BME280;11895;48.738;9.320;2023-06-22T06:18:50;98625.56;;;26.47;100.00
23446;BME280;11895;48.738;9.320;2023-06-22T06:21:18;98625.88;;;26.60;100.00
23446;BME280;11895;48.738;9.320;2023-06-22T06:23:45;98628.59;;;26.68;100.00
23446;BME280;11895;48.738;9.320;2023-06-22T06:26:14;98629.81;;;26.65;100.00
23446;BME280;11895;48.738;9.320;2023-06-22T06:28:43;98623.78;;;26.62;100.00
23446;BME280;11895;48.738;9.320;2023-06-22T06:31:11;98621.47;;;26.74;100.00
23446;BME280;11895;48.738;9.320;2023-06-22T06:33:39;98622.50;;;26.81;100.00
23446;BME280;11895;48.738;9.320;2023-06-22T06:36:06;98621.94;;;26.94;100.00
23446;BME280;11895;48.738;9.320;2023-06-22T06:38:35;98621.19;;;27.00;100.00
23446;BME280;11895;48.738;9.320;2023-06-22T06:41:02;98621.09;;;27.24;100.00
23446;BME280;11895;48.738;9.320;2023-06-22T06:43:30;98622.16;;;27.23;100.00
23446;BME280;11895;48.738;9.320;2023-06-22T06:45:58;98616.72;;;27.30;100.00
23446;BME280;11895;48.738;9.320;2023-06-22T06:48:26;98619.53;;;27.53;100.00
23446;BME280;11895;48.738;9.320;2023-06-22T06:50:54;98624.25;;;27.67;100.00
23446;BME280;11895;48.738;9.320;2023-06-22T06:53:21;98626.22;;;27.58;100.00
23446;BME280;11895;48.738;9.320;2023-06-22T06:55:49;98620.63;;;27.44;100.00
23446;BME280;11895;48.738;9.320;2023-06-22T06:58:17;98613.25;;;27.82;100.00
23446;BME280;11895;48.738;9.320;2023-06-22T07:00:44;98622.06;;;27.85;100.00
23446;BME280;11895;48.738;9.320;2023-06-22T07:03:12;98616.00;;;28.05;100.00
23446;BME280;11895;48.738;9.320;2023-06-22T07:05:39;98624.84;;;27.85;100.00
23446;BME280;11895;48.738;9.320;2023-06-22T07:08:07;98624.13;;;27.83;100.00
23446;BME280;11895;48.738;9.320;2023-06-22T07:10:35;98609.00;;;28.09;100.00
23446;BME280;11895;48.738;9.320;2023-06-22T07:13:03;98619.50;;;28.36;100.00
23446;BME280;11895;48.738;9.320;2023-06-22T07:15:31;98616.44;;;28.61;100.00
23446;BME280;11895;48.738;9.320;2023-06-22T07:17:58;98611.38;;;28.79;100.00
23446;BME280;11895;48.738;9.320;2023-06-22T07:20:26;98607.38;;;28.97;100.00
23446;BME280;11895;48.738;9.320;2023-06-22T07:22:54;98601.72;;;28.75;100.00
23446;BME280;11895;48.738;9.320;2023-06-22T07:25:22;98601.72;;;29.05;100.00
23446;BME280;11895;48.738;9.320;2023-06-22T07:28:04;98598.13;;;28.60;100.00
23446;BME280;11895;48.738;9.320;2023-06-22T07:30:33;98595.25;;;28.98;100.00
23446;BME280;11895;48.738;9.320;2023-06-22T07:33:02;98580.84;;;29.09;100.00
23446;BME280;11895;48.738;9.320;2023-06-22T07:35:32;98581.34;;;29.12;100.00
23446;BME280;11895;48.738;9.320;2023-06-22T07:38:00;98576.53;;;29.42;100.00
23446;BME280;11895;48.738;9.320;2023-06-22T07:40:32;98571.09;;;29.70;98.54
23446;BME280;11895;48.738;9.320;2023-06-22T07:43:02;98563.56;;;29.92;97.31
23446;BME280;11895;48.738;9.320;2023-06-22T07:45:30;98558.72;;;30.01;95.40
23446;BME280;11895;48.738;9.320;2023-06-22T07:48:01;98558.78;;;30.08;95.22
23446;BME280;11895;48.738;9.320;2023-06-22T07:50:33;98550.88;;;29.83;96.11
23446;BME280;11895;48.738;9.320;2023-06-22T07:53:00;98541.09;;;29.87;95.45
23446;BME280;11895;48.738;9.320;2023-06-22T07:55:28;98544.66;;;30.03;94.10
23446;BME280;11895;48.738;9.320;2023-06-22T07:57:56;98531.81;;;30.02;95.53
23446;BME280;11895;48.738;9.320;2023-06-22T08:00:23;98536.31;;;30.31;94.74
23446;BME280;11895;48.738;9.320;2023-06-22T08:02:52;98527.78;;;30.32;91.28
23446;BME280;11895;48.738;9.320;2023-06-22T08:05:19;98531.53;;;30.18;90.72
23446;BME280;11895;48.738;9.320;2023-06-22T08:07:50;98524.09;;;30.66;89.09
23446;BME280;11895;48.738;9.320;2023-06-22T08:10:18;98516.56;;;30.95;87.75
23446;BME280;11895;48.738;9.320;2023-06-22T08:12:46;98515.84;;;30.80;86.46
23446;BME280;11895;48.738;9.320;2023-06-22T08:15:14;98528.09;;;30.98;85.13
23446;BME280;11895;48.738;9.320;2023-06-22T08:17:42;98531.31;;;31.02;82.22
23446;BME280;11895;48.738;9.320;2023-06-22T08:20:11;98535.94;;;31.36;80.54
23446;BME280;11895;48.738;9.320;2023-06-22T08:22:41;98541.09;;;31.59;76.96
23446;BME280;11895;48.738;9.320;2023-06-22T08:25:10;98543.66;;;31.47;73.09
23446;BME280;11895;48.738;9.320;2023-06-22T08:27:37;98553.97;;;32.13;71.73
23446;BME280;11895;48.738;9.320;2023-06-22T08:30:09;98569.38;;;32.49;69.02
23446;BME280;11895;48.738;9.320;2023-06-22T08:32:38;98566.28;;;32.77;65.23
23446;BME280;11895;48.738;9.320;2023-06-22T08:35:06;98569.59;;;33.19;60.88
23446;BME280;11895;48.738;9.320;2023-06-22T08:37:36;98577.25;;;33.30;58.53
23446;BME280;11895;48.738;9.320;2023-06-22T08:40:06;98572.50;;;33.37;57.33
23446;BME280;11895;48.738;9.320;2023-06-22T08:42:40;98585.28;;;33.58;58.09
23446;BME280;11895;48.738;9.320;2023-06-22T08:45:10;98602.81;;;33.72;58.48
23446;BME280;11895;48.738;9.320;2023-06-22T08:47:38;98601.81;;;33.85;56.24
23446;BME280;11895;48.738;9.320;2023-06-22T08:50:06;98603.09;;;33.89;55.48
23446;BME280;11895;48.738;9.320;2023-06-22T08:52:42;98604.94;;;32.67;63.17
23446;BME280;11895;48.738;9.320;2023-06-22T08:55:13;98584.06;;;33.03;65.63
23446;BME280;11895;48.738;9.320;2023-06-22T08:57:41;98591.94;;;32.08;69.95
23446;BME280;11895;48.738;9.320;2023-06-22T09:00:10;98596.81;;;31.72;75.56
23446;BME280;11895;48.738;9.320;2023-06-22T09:02:44;98589.56;;;32.18;73.57
23446;BME280;11895;48.738;9.320;2023-06-22T09:05:14;98583.34;;;32.16;72.20
23446;BME280;11895;48.738;9.320;2023-06-22T09:07:42;98573.06;;;32.36;68.27
23446;BME280;11895;48.738;9.320;2023-06-22T09:10:10;98571.47;;;32.67;67.14
23446;BME280;11895;48.738;9.320;2023-06-22T09:12:39;98571.97;;;32.44;71.44
23446;BME280;11895;48.738;9.320;2023-06-22T09:15:12;98574.00;;;32.88;71.33
23446;BME280;11895;48.738;9.320;2023-06-22T09:17:44;98582.66;;;32.60;71.73
23446;BME280;11895;48.738;9.320;2023-06-22T09:20:15;98574.94;;;32.56;71.87
23446;BME280;11895;48.738;9.320;2023-06-22T09:22:43;98564.06;;;33.06;67.78
23446;BME280;11895;48.738;9.320;2023-06-22T09:25:11;98572.19;;;33.14;69.12
23446;BME280;11895;48.738;9.320;2023-06-22T09:27:39;98569.00;;;33.48;65.53
23446;BME280;11895;48.738;9.320;2023-06-22T09:30:07;98574.38;;;33.05;66.37
23446;BME280;11895;48.738;9.320;2023-06-22T09:32:35;98569.69;;;32.92;68.69
23446;BME280;11895;48.738;9.320;2023-06-22T09:35:05;98571.16;;;33.02;69.97
23446;BME280;11895;48.738;9.320;2023-06-22T09:37:33;98579.25;;;32.52;71.11
23446;BME280;11895;48.738;9.320;2023-06-22T09:40:02;98568.66;;;32.80;70.75
23446;BME280;11895;48.738;9.320;2023-06-22T09:42:35;98568.31;;;33.15;68.42
23446;BME280;11895;48.738;9.320;2023-06-22T09:45:03;98577.44;;;33.35;65.65
23446;BME280;11895;48.738;9.320;2023-06-22T09:47:31;98564.41;;;33.22;63.92
23446;BME280;11895;48.738;9.320;2023-06-22T09:49:59;98546.91;;;33.40;63.90
23446;BME280;11895;48.738;9.320;2023-06-22T09:52:28;98542.13;;;33.79;62.96
23446;BME280;11895;48.738;9.320;2023-06-22T09:55:14;98531.44;;;33.76;62.70
23446;BME280;11895;48.738;9.320;2023-06-22T09:57:43;98545.56;;;34.31;59.10
23446;BME280;11895;48.738;9.320;2023-06-22T10:00:11;98544.63;;;34.19;58.96
23446;BME280;11895;48.738;9.320;2023-06-22T10:02:41;98556.13;;;34.54;56.18
23446;BME280;11895;48.738;9.320;2023-06-22T10:05:10;98543.19;;;34.71;55.44
23446;BME280;11895;48.738;9.320;2023-06-22T10:07:38;98533.34;;;34.87;54.41
23446;BME280;11895;48.738;9.320;2023-06-22T10:10:11;98535.19;;;35.12;54.55
23446;BME280;11895;48.738;9.320;2023-06-22T10:12:47;98524.22;;;35.40;51.51
23446;BME280;11895;48.738;9.320;2023-06-22T10:15:21;98524.91;;;35.54;50.53
23446;BME280;11895;48.738;9.320;2023-06-22T10:17:49;98517.25;;;35.61;50.33
23446;BME280;11895;48.738;9.320;2023-06-22T10:20:17;98516.00;;;36.11;48.20
23446;BME280;11895;48.738;9.320;2023-06-22T10:22:46;98510.63;;;36.21;47.48
23446;BME280;11895;48.738;9.320;2023-06-22T10:25:14;98496.13;;;36.24;45.66
23446;BME280;11895;48.738;9.320;2023-06-22T10:27:41;98492.09;;;36.43;45.91
23446;BME280;11895;48.738;9.320;2023-06-22T10:30:10;98495.88;;;36.49;45.37
23446;BME280;11895;48.738;9.320;2023-06-22T10:32:42;98494.88;;;36.67;44.50
23446;BME280;11895;48.738;9.320;2023-06-22T10:35:11;98489.91;;;36.45;44.66
23446;BME280;11895;48.738;9.320;2023-06-22T10:37:45;98488.44;;;36.19;44.80
23446;BME280;11895;48.738;9.320;2023-06-22T10:40:14;98485.22;;;35.92;46.22
23446;BME280;11895;48.738;9.320;2023-06-22T10:42:45;98482.34;;;36.11;46.83
23446;BME280;11895;48.738;9.320;2023-06-22T10:45:13;98471.88;;;36.18;46.58
23446;BME280;11895;48.738;9.320;2023-06-22T10:47:41;98477.41;;;36.65;44.29
23446;BME280;11895;48.738;9.320;2023-06-22T10:50:11;98472.38;;;36.90;45.00
23446;BME280;11895;48.738;9.320;2023-06-22T10:52:39;98466.72;;;37.02;44.79
23446;BME280;11895;48.738;9.320;2023-06-22T10:55:08;98471.63;;;36.83;44.53
23446;BME280;11895;48.738;9.320;2023-06-22T10:57:36;98464.06;;;35.43;46.69
23446;BME280;11895;48.738;9.320;2023-06-22T11:00:11;98465.50;;;35.87;46.98
23446;BME280;11895;48.738;9.320;2023-06-22T11:02:39;98459.19;;;36.27;46.15
23446;BME280;11895;48.738;9.320;2023-06-22T11:05:09;98462.34;;;36.19;45.62
23446;BME280;11895;48.738;9.320;2023-06-22T11:07:42;98458.94;;;36.28;47.06
23446;BME280;11895;48.738;9.320;2023-06-22T11:10:16;98460.16;;;36.21;44.98
23446;BME280;11895;48.738;9.320;2023-06-22T11:12:43;98451.84;;;36.49;45.01
23446;BME280;11895;48.738;9.320;2023-06-22T11:15:10;98457.81;;;36.93;42.88
23446;BME280;11895;48.738;9.320;2023-06-22T11:17:38;98452.94;;;36.37;44.19
23446;BME280;11895;48.738;9.320;2023-06-22T11:20:06;98463.06;;;36.26;45.17
23446;BME280;11895;48.738;9.320;2023-06-22T11:22:40;98457.81;;;35.71;46.40
23446;BME280;11895;48.738;9.320;2023-06-22T11:25:09;98471.72;;;36.24;46.42
23446;BME280;11895;48.738;9.320;2023-06-22T11:27:38;98462.97;;;36.09;46.31
23446;BME280;11895;48.738;9.320;2023-06-22T11:30:07;98468.69;;;36.26;46.40
23446;BME280;11895;48.738;9.320;2023-06-22T11:32:34;98464.44;;;36.00;47.59
23446;BME280;11895;48.738;9.320;2023-06-22T11:35:03;98455.13;;;34.92;51.00
23446;BME280;11895;48.738;9.320;2023-06-22T11:37:30;98465.22;;;35.12;50.93
23446;BME280;11895;48.738;9.320;2023-06-22T11:39:57;98448.78;;;35.92;50.17
23446;BME280;11895;48.738;9.320;2023-06-22T11:42:34;98444.06;;;35.81;47.88
23446;BME280;11895;48.738;9.320;2023-06-22T11:45:04;98444.28;;;36.26;46.52
23446;BME280;11895;48.738;9.320;2023-06-22T11:47:32;98435.06;;;36.02;46.35
23446;BME280;11895;48.738;9.320;2023-06-22T11:50:00;98436.16;;;36.13;45.74
23446;BME280;11895;48.738;9.320;2023-06-22T11:52:28;98439.97;;;36.59;46.45
23446;BME280;11895;48.738;9.320;2023-06-22T11:54:55;98436.00;;;36.84;45.05
23446;BME280;11895;48.738;9.320;2023-06-22T11:57:22;98443.34;;;35.97;43.34
23446;BME280;11895;48.738;9.320;2023-06-22T11:59:51;98441.44;;;35.44;43.02
23446;BME280;11895;48.738;9.320;2023-06-22T12:02:18;98447.22;;;36.32;41.52
23446;BME280;11895;48.738;9.320;2023-06-22T12:04:45;98449.28;;;36.48;40.53
23446;BME280;11895;48.738;9.320;2023-06-22T12:07:13;98450.41;;;36.12;40.86
23446;BME280;11895;48.738;9.320;2023-06-22T12:09:41;98450.06;;;35.96;42.87
23446;BME280;11895;48.738;9.320;2023-06-22T12:12:09;98454.25;;;36.58;40.96
23446;BME280;11895;48.738;9.320;2023-06-22T12:14:37;98444.19;;;36.73;40.60
23446;BME280;11895;48.738;9.320;2023-06-22T12:17:04;98437.72;;;36.21;42.38
23446;BME280;11895;48.738;9.320;2023-06-22T12:19:32;98420.38;;;36.47;41.11
23446;BME280;11895;48.738;9.320;2023-06-22T12:21:59;98431.13;;;36.91;40.81
23446;BME280;11895;48.738;9.320;2023-06-22T12:24:27;98439.16;;;37.16;40.15
23446;BME280;11895;48.738;9.320;2023-06-22T12:26:54;98433.13;;;36.67;37.61
23446;BME280;11895;48.738;9.320;2023-06-22T12:29:22;98424.16;;;36.41;39.34
23446;BME280;11895;48.738;9.320;2023-06-22T12:31:49;98420.00;;;36.84;38.92
23446;BME280;11895;48.738;9.320;2023-06-22T12:34:17;98428.72;;;36.71;40.11
23446;BME280;11895;48.738;9.320;2023-06-22T12:36:44;98432.22;;;36.78;39.70
23446;BME280;11895;48.738;9.320;2023-06-22T12:39:14;98440.34;;;36.63;39.48
23446;BME280;11895;48.738;9.320;2023-06-22T12:41:42;98456.28;;;35.98;41.71
23446;BME280;11895;48.738;9.320;2023-06-22T12:44:09;98469.75;;;35.78;43.55
23446;BME280;11895;48.738;9.320;2023-06-22T12:46:37;98475.69;;;35.46;44.88
23446;BME280;11895;48.738;9.320;2023-06-22T12:49:05;98482.78;;;35.61;43.68
23446;BME280;11895;48.738;9.320;2023-06-22T12:51:33;98487.19;;;35.38;44.62
23446;BME280;11895;48.738;9.320;2023-06-22T12:54:01;98487.81;;;35.40;44.50
23446;BME280;11895;48.738;9.320;2023-06-22T12:56:29;98490.28;;;35.18;47.67
23446;BME280;11895;48.738;9.320;2023-06-22T12:58:56;98486.59;;;35.36;47.48
23446;BME280;11895;48.738;9.320;2023-06-22T13:01:24;98480.44;;;35.46;48.09
23446;BME280;11895;48.738;9.320;2023-06-22T13:03:52;98479.88;;;35.25;50.13
23446;BME280;11895;48.738;9.320;2023-06-22T13:06:19;98476.41;;;35.12;51.52
23446;BME280;11895;48.738;9.320;2023-06-22T13:08:47;98468.94;;;35.06;51.62
23446;BME280;11895;48.738;9.320;2023-06-22T13:11:18;98457.28;;;35.09;50.85
23446;BME280;11895;48.738;9.320;2023-06-22T13:13:47;98452.81;;;35.19;50.11
23446;BME280;11895;48.738;9.320;2023-06-22T13:16:14;98446.63;;;35.29;49.37